Observation data for Paducah on 01/19/2019      Previous  Date  Next       Current Mesonet Observations  Soil Data  Daily Summary Page  Observations in Plain Language
KPAD 190600Z 34029G38KT 03/M02 A2997 RMK A01 T00331017  RH  070%=      5-min Rain = 0
KPAD 190605Z 35029G37KT 03/M01 A2998 RMK A01 T00291013  RH  074%=      5-min Rain = 0
KPAD 190610Z 35024G31KT 03/M01 A2999 RMK A01 T00251010  RH  078%=      5-min Rain = 0
KPAD 190615Z 34021G30KT 02/M01 A2999 RMK A01 T00241007  RH  081%=      5-min Rain = 0
KPAD 190620Z 34026G34KT 02/M01 A30 RMK A01 T00201006  RH  084%=      5-min Rain = 0
KPAD 190625Z 34023G30KT 02/M01 A30 RMK A01 T00171005  RH  087%=      5-min Rain = 0
KPAD 190630Z 34026G33KT 02/M00 A3001 RMK A01 T00151004  RH  089%=      5-min Rain = 0
KPAD 190635Z 34025G32KT 01/M00 A3001 RMK A01 T00131004  RH  089%=      5-min Rain = 0
KPAD 190640Z 34024G32KT 01/M01 A3001 RMK A01 T00091005  RH  091%=      5-min Rain = 0
KPAD 190645Z 34022G27KT 01/M01 A3001 RMK A01 T00061005  RH  093%=      5-min Rain = 0
KPAD 190650Z 34020G28KT 01/M00 A3002 RMK A01 T00061003  RH  095%=      5-min Rain = 0
KPAD 190655Z 34021KT 01/M00 A3002 RMK A01 T00061002  RH  095%=      5-min Rain = 0
KPAD 190700Z 34020G26KT 01/M00 A3002 RMK A01 T00061002  RH  096%=      5-min Rain = 0
KPAD 190705Z 34021G26KT 01/M00 A3002 RMK A01 T00051003  RH  096%=      5-min Rain = 0
KPAD 190710Z 34019G24KT 00/M00 A3003 RMK A01 T00041002  RH  096%=      5-min Rain = 0
KPAD 190715Z 34019G24KT 00/M00 A3003 RMK A01 T00041003  RH  096%=      5-min Rain = 0
KPAD 190720Z 34016G21KT 00/M00 A3003 RMK A01 T00021004  RH  097%=      5-min Rain = 0
KPAD 190725Z 34018G24KT 00/M00 A3004 RMK A01 T00021003  RH  097%=      5-min Rain = 0
KPAD 190730Z 34021G26KT 00/M00 A3004 RMK A01 T00021003  RH  097%=      5-min Rain = 0
KPAD 190735Z 34019G25KT 00/M00 A3004 RMK A01 T00031002  RH  097%=      5-min Rain = 0
KPAD 190740Z 34016G22KT 00/M00 A3004 RMK A01 T00041002  RH  097%=      5-min Rain = 0
KPAD 190745Z 34016G21KT 00/M00 A3005 RMK A01 T00041001  RH  097%=      5-min Rain = 0
KPAD 190750Z 33015G20KT 01/00 A3005 RMK A01 T000500-0  RH  097%=      5-min Rain = 0
KPAD 190755Z 34015G20KT 01/00 A3005 RMK A01 T00060000  RH  097%=      5-min Rain = 0
KPAD 190800Z 34017G23KT 01/00 A3005 RMK A01 T00060000  RH  097%=      5-min Rain = 0
KPAD 190805Z 34016G21KT 01/00 A3005 RMK A01 T00070000  RH  096%=      5-min Rain = 0
KPAD 190810Z 34015KT 01/00 A3005 RMK A01 T00080000  RH  096%=      5-min Rain = 0
KPAD 190815Z 33013KT 01/00 A3006 RMK A01 T00080000  RH  096%=      5-min Rain = 0
KPAD 190820Z 33012KT 01/00 A3006 RMK A01 T00090000  RH  095%=      5-min Rain = 0
KPAD 190825Z 33013G20KT 01/00 A3006 RMK A01 T00100001  RH  095%=      5-min Rain = 0
KPAD 190830Z 33016G21KT 01/00 A3005 RMK A01 T00110001  RH  094%=      5-min Rain = 0
KPAD 190835Z 34017G22KT 01/00 A3005 RMK A01 T00130000  RH  092%=      5-min Rain = 0
KPAD 190840Z 34020G25KT 02/M00 A3005 RMK A01 T00151001  RH  090%=      5-min Rain = 0
KPAD 190845Z 34017G23KT 02/M00 A3005 RMK A01 T00161003  RH  089%=      5-min Rain = 0
KPAD 190850Z 34019G26KT 02/M00 A3006 RMK A01 T00161004  RH  087%=      5-min Rain = 0
KPAD 190855Z 34018KT 02/M00 A3006 RMK A01 T00161004  RH  087%=      5-min Rain = 0
KPAD 190900Z 34018G23KT 02/M01 A3006 RMK A01 T00171005  RH  087%=      5-min Rain = 0
KPAD 190905Z 34019G24KT 02/M01 A3006 RMK A01 T00171005  RH  086%=      5-min Rain = 0
KPAD 190910Z 34019G25KT 02/M01 A3006 RMK A01 T00181005  RH  086%=      5-min Rain = 0
KPAD 190915Z 35017G22KT 02/M01 A3007 RMK A01 T00181005  RH  086%=      5-min Rain = 0
KPAD 190920Z 34016G23KT 02/M00 A3007 RMK A01 T00181004  RH  086%=      5-min Rain = 0
KPAD 190925Z 34018G23KT 02/M01 A3007 RMK A01 T00181005  RH  086%=      5-min Rain = 0
KPAD 190930Z 34016G21KT 02/M00 A3008 RMK A01 T00191004  RH  086%=      5-min Rain = 0
KPAD 190935Z 34016KT 02/M00 A3008 RMK A01 T00191004  RH  086%=      5-min Rain = 0
KPAD 190940Z 34017G22KT 02/M00 A3008 RMK A01 T00191003  RH  086%=      5-min Rain = 0
KPAD 190945Z 34017KT 02/M00 A3009 RMK A01 T00181004  RH  086%=      5-min Rain = 0
KPAD 190950Z 35018G26KT 02/M01 A3009 RMK A01 T00171005  RH  086%=      5-min Rain = 0
KPAD 190955Z 35020G26KT 02/M01 A3009 RMK A01 T00151012  RH  083%=      5-min Rain = 0
KPAD 191000Z 35018G26KT 01/M02 A3009 RMK A01 T00131016  RH  081%=      5-min Rain = 0
KPAD 191005Z 35018G25KT 01/M02 A301 RMK A01 T00111018  RH  082%=      5-min Rain = 0
KPAD 191010Z 34020G29KT 01/M02 A301 RMK A01 T00101019  RH  082%=      5-min Rain = 0
KPAD 191015Z 34024G29KT 01/M02 A3011 RMK A01 T00091024  RH  079%=      5-min Rain = 0
KPAD 191020Z 34023G29KT 01/M03 A3011 RMK A01 T00071028  RH  078%=      5-min Rain = 0
KPAD 191025Z 34024G29KT 01/M03 A3011 RMK A01 T00051029  RH  078%=      5-min Rain = 0
KPAD 191030Z 34022G28KT 00/M03 A3011 RMK A01 T00041030  RH  078%=      5-min Rain = 0
KPAD 191035Z 34025G31KT 00/M03 A3011 RMK A01 T00031031  RH  078%=      5-min Rain = 0
KPAD 191040Z 34025G31KT 00/M03 A3012 RMK A01 T00041034  RH  077%=      5-min Rain = 0
KPAD 191045Z 35023G30KT 00/M03 A3012 RMK A01 T00031034  RH  076%=      5-min Rain = 0
KPAD 191050Z 35022G27KT 00/M04 A3012 RMK A01 T00021035  RH  077%=      5-min Rain = 0
KPAD 191055Z 35020KT 00/M04 A3013 RMK A01 T00011035  RH  077%=      5-min Rain = 0
KPAD 191100Z 35021G29KT 00/M04 A3013 RMK A01 T00011035  RH  077%=      5-min Rain = 0
KPAD 191105Z 35021G28KT 00/M04 A3013 RMK A01 T00021036  RH  076%=      5-min Rain = 0
KPAD 191110Z 35021G28KT 00/M04 A3013 RMK A01 T00021037  RH  076%=      5-min Rain = 0
KPAD 191115Z 34019G26KT 00/M04 A3014 RMK A01 T00011037  RH  076%=      5-min Rain = 0
KPAD 191120Z 34019G24KT 00/04 A3014 RMK A01 T00000-37  RH  076%=      5-min Rain = 0
KPAD 191125Z 34019G26KT M00/M04 A3014 RMK A01 T10011038  RH  077%=      5-min Rain = 0
KPAD 191130Z 34017KT M00/M04 A3015 RMK A01 T10021038  RH  077%=      5-min Rain = 0
KPAD 191135Z 34016G21KT M00/M04 A3015 RMK A01 T10021038  RH  077%=      5-min Rain = 0
KPAD 191140Z 33013KT M00/M04 A3016 RMK A01 T10041038  RH  078%=      5-min Rain = 0
KPAD 191145Z 33015G22KT M00/M04 A3016 RMK A01 T10041036  RH  080%=      5-min Rain = 0
KPAD 191150Z 34017G24KT M00/M04 A3016 RMK A01 T10041037  RH  079%=      5-min Rain = 0
KPAD 191155Z 33019KT M00/M04 A3017 RMK A01 T10041040  RH  077%=      5-min Rain = 0
KPAD 191200Z 33017G23KT M01/M04 A3017 RMK A01 T10051041  RH  077%=      5-min Rain = 0
KPAD 191205Z 33016G22KT M01/M04 A3017 RMK A01 T10061041  RH  077%=      5-min Rain = 0
KPAD 191210Z 34016G21KT M01/M04 A3018 RMK A01 T10061043  RH  077%=      5-min Rain = 0
KPAD 191215Z 34017G22KT M01/M04 A3018 RMK A01 T10071044  RH  076%=      5-min Rain = 0
KPAD 191220Z 34016G23KT M01/M04 A3018 RMK A01 T10071044  RH  076%=      5-min Rain = 0
KPAD 191225Z 33014KT M01/M04 A3019 RMK A01 T10091044  RH  077%=      5-min Rain = 0
KPAD 191230Z 33014KT M01/M04 A3019 RMK A01 T10101043  RH  078%=      5-min Rain = 0
KPAD 191235Z 33013KT M01/M04 A3019 RMK A01 T10111043  RH  079%=      5-min Rain = 0
KPAD 191240Z 33014G19KT M01/M04 A3019 RMK A01 T10111043  RH  079%=      5-min Rain = 0
KPAD 191245Z 33015G20KT M01/M04 A302 RMK A01 T10101043  RH  079%=      5-min Rain = 0
KPAD 191250Z 33016G21KT M01/M04 A302 RMK A01 T10091043  RH  078%=      5-min Rain = 0
KPAD 191255Z 33016G22KT M01/M04 A302 RMK A01 T10091043  RH  078%=      5-min Rain = 0
KPAD 191300Z 34017G23KT M01/M04 A302 RMK A01 T10091044  RH  077%=      5-min Rain = 0
KPAD 191305Z 34018G24KT M01/M04 A302 RMK A01 T10081044  RH  077%=      5-min Rain = 0
KPAD 191310Z 34016G21KT M01/M04 A302 RMK A01 T10081044  RH  077%=      5-min Rain = 0
KPAD 191315Z 34016G21KT M01/M04 A3021 RMK A01 T10091044  RH  077%=      5-min Rain = 0
KPAD 191320Z 34015KT M01/M04 A3021 RMK A01 T10081044  RH  077%=      5-min Rain = 0
KPAD 191325Z 34014KT M01/M04 A3021 RMK A01 T10091044  RH  078%=      5-min Rain = 0
KPAD 191330Z 33014KT M01/M04 A3021 RMK A01 T10091043  RH  078%=      5-min Rain = 0
KPAD 191335Z 33015KT M01/M04 A3021 RMK A01 T10091043  RH  078%=      5-min Rain = 0
KPAD 191340Z 34014G19KT M01/M04 A3022 RMK A01 T10101043  RH  079%=      5-min Rain = 0
KPAD 191345Z 34014KT M01/M04 A3022 RMK A01 T10101043  RH  079%=      5-min Rain = 0
KPAD 191350Z 34012KT M01/M04 A3022 RMK A01 T10111043  RH  079%=      5-min Rain = 0
KPAD 191355Z 34012G17KT M01/M04 A3022 RMK A01 T10111043  RH  079%=      5-min Rain = 0
KPAD 191400Z 34014KT M01/M04 A3022 RMK A01 T10101042  RH  079%=      5-min Rain = 0
KPAD 191405Z 34014KT M01/M04 A3022 RMK A01 T10081041  RH  079%=      5-min Rain = 0
KPAD 191410Z 34014KT M01/M04 A3023 RMK A01 T10081041  RH  079%=      5-min Rain = 0
KPAD 191415Z 34014G19KT M01/M04 A3023 RMK A01 T10061040  RH  079%=      5-min Rain = 0
KPAD 191420Z 34014KT M01/M04 A3024 RMK A01 T10061039  RH  079%=      5-min Rain = 0
KPAD 191425Z 34014KT M01/M04 A3024 RMK A01 T10061039  RH  079%=      5-min Rain = 0
KPAD 191430Z 34015G20KT M01/M04 A3024 RMK A01 T10051038  RH  079%=      5-min Rain = 0
KPAD 191435Z 34016KT M00/M04 A3025 RMK A01 T10031037  RH  079%=      5-min Rain = 0
KPAD 191440Z 34017G23KT M00/M04 A3025 RMK A01 T10011035  RH  078%=      5-min Rain = 0
KPAD 191445Z 34018G24KT 00/M04 A3025 RMK A01 T00021035  RH  077%=      5-min Rain = 0
KPAD 191450Z 34018G26KT 00/M03 A3025 RMK A01 T00041034  RH  076%=      5-min Rain = 0
KPAD 191455Z 34018G24KT 01/M03 A3026 RMK A01 T00061034  RH  075%=      5-min Rain = 0
KPAD 191500Z 34018G25KT 01/M03 A3026 RMK A01 T00071034  RH  075%=      5-min Rain = 0
KPAD 191505Z 34019G26KT 01/M03 A3027 RMK A01 T00091034  RH  074%=      5-min Rain = 0
KPAD 191510Z 34020G25KT 01/M03 A3027 RMK A01 T00101034  RH  073%=      5-min Rain = 0
KPAD 191515Z 34017KT 01/M03 A3028 RMK A01 T00121033  RH  073%=      5-min Rain = 0
KPAD 191520Z 34019G28KT 01/M04 A3028 RMK A01 T00131035  RH  071%=      5-min Rain = 0
KPAD 191525Z 34022G29KT 01/M04 A3028 RMK A01 T00131036  RH  070%=      5-min Rain = 0
KPAD 191530Z 34024G31KT 01/M04 A3028 RMK A01 T00131038  RH  069%=      5-min Rain = 0
KPAD 191535Z 34024G29KT 02/M04 A3029 RMK A01 T00151039  RH  068%=      5-min Rain = 0
KPAD 191540Z 35021G29KT 02/M04 A3029 RMK A01 T00171039  RH  067%=      5-min Rain = 0
KPAD 191545Z 35022G28KT 02/M04 A3029 RMK A01 T00181039  RH  066%=      5-min Rain = 0
KPAD 191550Z 35020G28KT 02/M04 A3029 RMK A01 T00201037  RH  066%=      5-min Rain = 0
KPAD 191555Z 34021G29KT 02/M04 A303 RMK A01 T00221038  RH  065%=      5-min Rain = 0
KPAD 191600Z 35022KT 02/M04 A303 RMK A01 T00231040  RH  063%=      5-min Rain = 0
KPAD 191605Z 35020G29KT 03/M04 A303 RMK A01 T00251037  RH  064%=      5-min Rain = 0
KPAD 191610Z 34023G30KT 03/M04 A303 RMK A01 T00261039  RH  063%=      5-min Rain = 0
KPAD 191615Z 34023G32KT 03/M04 A3031 RMK A01 T00271039  RH  062%=      5-min Rain = 0
KPAD 191620Z 34021G28KT 03/M04 A3031 RMK A01 T00271039  RH  062%=      5-min Rain = 0
KPAD 191625Z 34024G31KT 03/M04 A3031 RMK A01 T00291042  RH  060%=      5-min Rain = 0
KPAD 191630Z 35024G32KT 03/M05 A3031 RMK A01 T00311045  RH  057%=      5-min Rain = 0
KPAD 191635Z 36023G30KT 03/M05 A3031 RMK A01 T00331050  RH  055%=      5-min Rain = 0
KPAD 191640Z 35021G30KT 04/M05 A3031 RMK A01 T00351047  RH  055%=      5-min Rain = 0
KPAD 191645Z 35019G26KT 04/M04 A3031 RMK A01 T00381043  RH  056%=      5-min Rain = 0
KPAD 191650Z 34023G30KT 04/M04 A3031 RMK A01 T00381044  RH  055%=      5-min Rain = 0
KPAD 191655Z 35026G34KT 04/M05 A3031 RMK A01 T00361048  RH  054%=      5-min Rain = 0
KPAD 191700Z 35023G29KT 04/M05 A3032 RMK A01 T00371049  RH  054%=      5-min Rain = 0
KPAD 191705Z 34022G29KT 04/M05 A3032 RMK A01 T00381048  RH  054%=      5-min Rain = 0
KPAD 191710Z 34021G28KT 04/M05 A3032 RMK A01 T00401047  RH  053%=      5-min Rain = 0
KPAD 191715Z 35021G27KT 04/M05 A3032 RMK A01 T00411045  RH  054%=      5-min Rain = 0
KPAD 191720Z 35021G28KT 04/M04 A3032 RMK A01 T00441043  RH  054%=      5-min Rain = 0
KPAD 191725Z 34024G31KT 04/M04 A3032 RMK A01 T00441042  RH  054%=      5-min Rain = 0
KPAD 191730Z 35022G29KT 05/M04 A3032 RMK A01 T00461040  RH  054%=      5-min Rain = 0
KPAD 191735Z 35021G27KT 05/M04 A3032 RMK A01 T00481038  RH  054%=      5-min Rain = 0
KPAD 191740Z 34020G27KT 05/M04 A3032 RMK A01 T00521035  RH  054%=      5-min Rain = 0
KPAD 191745Z 34024G31KT 05/M04 A3031 RMK A01 T00521039  RH  052%=      5-min Rain = 0
KPAD 191750Z 34024G30KT 05/M04 A3031 RMK A01 T00511044  RH  050%=      5-min Rain = 0
KPAD 191755Z 35024G31KT 05/M04 A3031 RMK A01 T00511044  RH  050%=      5-min Rain = 0
KPAD 191800Z 34021G26KT 05/M04 A3031 RMK A01 T00521043  RH  050%=      5-min Rain = 0
KPAD 191805Z 34022G28KT 06/M04 A3031 RMK A01 T00561044  RH  049%=      5-min Rain = 0
KPAD 191810Z 34024G30KT 05/M05 A303 RMK A01 T00541047  RH  048%=      5-min Rain = 0
KPAD 191815Z 33023G29KT 05/M05 A303 RMK A01 T00541045  RH  049%=      5-min Rain = 0
KPAD 191820Z 33023KT 05/M04 A3029 RMK A01 T00531043  RH  050%=      5-min Rain = 0
KPAD 191825Z 33022G29KT 06/M04 A3029 RMK A01 T00551040  RH  051%=      5-min Rain = 0
KPAD 191830Z 35023G35KT 06/M04 A3029 RMK A01 T00571040  RH  050%=      5-min Rain = 0
KPAD 191835Z 34024G30KT 06/M04 A3029 RMK A01 T00571041  RH  050%=      5-min Rain = 0
KPAD 191840Z 34025G30KT 06/M04 A3029 RMK A01 T00561042  RH  049%=      5-min Rain = 0
KPAD 191845Z 34023G30KT 06/M04 A3029 RMK A01 T00581042  RH  049%=      5-min Rain = 0
KPAD 191850Z 35021G27KT 06/M04 A3029 RMK A01 T00601041  RH  049%=      5-min Rain = 0
KPAD 191855Z 34019G24KT 06/M04 A3029 RMK A01 T00621038  RH  049%=      5-min Rain = 0
KPAD 191900Z 34019G26KT 06/M04 A3029 RMK A01 T00641038  RH  048%=      5-min Rain = 0
KPAD 191905Z 33019G26KT 06/M04 A3028 RMK A01 T00631038  RH  049%=      5-min Rain = 0
KPAD 191910Z 33018G23KT 07/M04 A3028 RMK A01 T00651037  RH  048%=      5-min Rain = 0
KPAD 191915Z 34021G29KT 07/M04 A3028 RMK A01 T00651037  RH  048%=      5-min Rain = 0
KPAD 191920Z 34020G25KT 07/M04 A3028 RMK A01 T00651037  RH  048%=      5-min Rain = 0
KPAD 191925Z 34019G25KT 07/M04 A3028 RMK A01 T00681036  RH  048%=      5-min Rain = 0
KPAD 191930Z 35018G24KT 07/M04 A3028 RMK A01 T00721037  RH  046%=      5-min Rain = 0
KPAD 191935Z 34019G26KT 07/M04 A3028 RMK A01 T00721037  RH  046%=      5-min Rain = 0
KPAD 191940Z 34019G25KT 07/M04 A3027 RMK A01 T00711038  RH  046%=      5-min Rain = 0
KPAD 191945Z 34020G28KT 07/M04 A3027 RMK A01 T00731038  RH  046%=      5-min Rain = 0
KPAD 191950Z 35022G31KT 07/M04 A3027 RMK A01 T00711042  RH  045%=      5-min Rain = 0
KPAD 191955Z 35018G25KT 07/M04 A3027 RMK A01 T00731039  RH  045%=      5-min Rain = 0
KPAD 192000Z 35020G28KT 08/M04 A3026 RMK A01 T00761039  RH  044%=      5-min Rain = 0
KPAD 192005Z 34021G28KT 08/M04 A3026 RMK A01 T00751041  RH  044%=      5-min Rain = 0
KPAD 192010Z 35020G27KT 08/M04 A3026 RMK A01 T00751041  RH  044%=      5-min Rain = 0
KPAD 192015Z 35019G24KT 08/M04 A3025 RMK A01 T00791040  RH  043%=      5-min Rain = 0
KPAD 192020Z 35021KT 08/M04 A3025 RMK A01 T00761042  RH  043%=      5-min Rain = 0
KPAD 192025Z 34020G26KT 08/M04 A3025 RMK A01 T00771042  RH  043%=      5-min Rain = 0
KPAD 192030Z 35020G28KT 08/M04 A3024 RMK A01 T00791043  RH  042%=      5-min Rain = 0
KPAD 192035Z 35020G26KT 08/M04 A3024 RMK A01 T00791044  RH  042%=      5-min Rain = 0
KPAD 192040Z 35020G29KT 08/M04 A3024 RMK A01 T00821043  RH  041%=      5-min Rain = 0
KPAD 192045Z 35018G24KT 08/M04 A3025 RMK A01 T00821043  RH  041%=      5-min Rain = 0
KPAD 192050Z 35018G26KT 09/M04 A3025 RMK A01 T00851044  RH  040%=      5-min Rain = 0
KPAD 192055Z 34017G25KT 09/M04 A3026 RMK A01 T00861042  RH  040%=      5-min Rain = 0
KPAD 192100Z 34018G24KT 09/M04 A3026 RMK A01 T00851042  RH  041%=      5-min Rain = 0
KPAD 192105Z 35015G21KT 09/M04 A3026 RMK A01 T00871040  RH  041%=      5-min Rain = 0
KPAD 192110Z 34017G23KT 09/M04 A3026 RMK A01 T00861041  RH  041%=      5-min Rain = 0
KPAD 192115Z 34016G22KT 09/M04 A3026 RMK A01 T00851040  RH  041%=      5-min Rain = 0
KPAD 192120Z 34017G24KT 09/M04 A3026 RMK A01 T00881040  RH  040%=      5-min Rain = 0
KPAD 192125Z 34015G20KT 09/M04 A3026 RMK A01 T00851041  RH  041%=      5-min Rain = 0
KPAD 192130Z 34019G26KT 09/M04 A3026 RMK A01 T00851043  RH  040%=      5-min Rain = 0
KPAD 192135Z 34018KT 09/M04 A3027 RMK A01 T00851043  RH  040%=      5-min Rain = 0
KPAD 192140Z 34015KT 09/M04 A3027 RMK A01 T00861041  RH  041%=      5-min Rain = 0
KPAD 192145Z 35015G21KT 09/M04 A3027 RMK A01 T00871041  RH  040%=      5-min Rain = 0
KPAD 192150Z 34017KT 09/M04 A3027 RMK A01 T00861040  RH  041%=      5-min Rain = 0
KPAD 192155Z 34018G23KT 09/M04 A3027 RMK A01 T00861039  RH  041%=      5-min Rain = 0
KPAD 192200Z 34018KT 09/M04 A3027 RMK A01 T00851040  RH  041%=      5-min Rain = 0
KPAD 192205Z 33018G23KT 08/M04 A3027 RMK A01 T00841039  RH  042%=      5-min Rain = 0
KPAD 192210Z 33018G23KT 08/M04 A3027 RMK A01 T00841039  RH  042%=      5-min Rain = 0
KPAD 192215Z 34017G23KT 08/M04 A3027 RMK A01 T00841038  RH  042%=      5-min Rain = 0
KPAD 192220Z 34016KT 08/M04 A3026 RMK A01 T00841038  RH  042%=      5-min Rain = 0
KPAD 192225Z 34016G21KT 09/M04 A3027 RMK A01 T00851038  RH  042%=      5-min Rain = 0
KPAD 192230Z 34016G21KT 08/M04 A3027 RMK A01 T00841038  RH  042%=      5-min Rain = 0
KPAD 192235Z 34015KT 08/M04 A3027 RMK A01 T00841038  RH  042%=      5-min Rain = 0
KPAD 192240Z 35014G19KT 08/M04 A3027 RMK A01 T00841037  RH  042%=      5-min Rain = 0
KPAD 192245Z 34013G18KT 08/M04 A3027 RMK A01 T00841037  RH  043%=      5-min Rain = 0
KPAD 192250Z 34013KT 08/M04 A3027 RMK A01 T00841036  RH  043%=      5-min Rain = 0
KPAD 192255Z 34013KT 08/M04 A3028 RMK A01 T00831037  RH  043%=      5-min Rain = 0
KPAD 192300Z 35014KT 08/M04 A3028 RMK A01 T00821038  RH  043%=      5-min Rain = 0
KPAD 192305Z 35013KT 08/M04 A3028 RMK A01 T00811037  RH  043%=      5-min Rain = 0
KPAD 192310Z 35011KT 08/M04 A3028 RMK A01 T00801037  RH  044%=      5-min Rain = 0
KPAD 192315Z 35012G17KT 08/M04 A3028 RMK A01 T00791037  RH  044%=      5-min Rain = 0
KPAD 192320Z 35012KT 08/M04 A3028 RMK A01 T00771037  RH  044%=      5-min Rain = 0
KPAD 192325Z 35011KT 08/M04 A3028 RMK A01 T00761037  RH  045%=      5-min Rain = 0
KPAD 192330Z 35012KT 07/M04 A3027 RMK A01 T00741036  RH  046%=      5-min Rain = 0
KPAD 192335Z 34011KT 07/M04 A3027 RMK A01 T00731035  RH  046%=      5-min Rain = 0
KPAD 192340Z 34011KT 07/M04 A3027 RMK A01 T00711035  RH  047%=      5-min Rain = 0
KPAD 192345Z 34010KT 07/M04 A3027 RMK A01 T00681035  RH  048%=      5-min Rain = 0
KPAD 192350Z 35010KT 07/M04 A3027 RMK A01 T00651035  RH  049%=      5-min Rain = 0
KPAD 192355Z 35008KT 06/M04 A3027 RMK A01 T00621035  RH  050%=      5-min Rain = 0
KPAD 200000Z 35007KT 06/M04 A3028 RMK A01 T00571035  RH  052%=      5-min Rain = 0
KPAD 200005Z 34006KT 05/M04 A3028 RMK A01 T00521035  RH  054%=      5-min Rain = 0
KPAD 200010Z 35006KT 05/M04 A3028 RMK A01 T00471036  RH  055%=      5-min Rain = 0
KPAD 200015Z 35006KT 04/M04 A3028 RMK A01 T00441036  RH  056%=      5-min Rain = 0
KPAD 200020Z 35006KT 04/M04 A3028 RMK A01 T00411036  RH  057%=      5-min Rain = 0
KPAD 200025Z 35007KT 04/M04 A3028 RMK A01 T00391036  RH  058%=      5-min Rain = 0
KPAD 200030Z 35007KT 04/M04 A3028 RMK A01 T00371036  RH  059%=      5-min Rain = 0
KPAD 200035Z 35007KT 04/M04 A3028 RMK A01 T00361035  RH  060%=      5-min Rain = 0
KPAD 200040Z 34008KT 03/M03 A3028 RMK A01 T00321034  RH  062%=      5-min Rain = 0
KPAD 200045Z 34008KT 03/M03 A3028 RMK A01 T00301034  RH  063%=      5-min Rain = 0
KPAD 200050Z 35008KT 03/M03 A3028 RMK A01 T00311034  RH  063%=      5-min Rain = 0
KPAD 200055Z 35007KT 03/M04 A3028 RMK A01 T00301035  RH  063%=      5-min Rain = 0
KPAD 200100Z 35007KT 03/M04 A3028 RMK A01 T00281035  RH  063%=      5-min Rain = 0
KPAD 200105Z 35007KT 03/M04 A3028 RMK A01 T00251036  RH  064%=      5-min Rain = 0
KPAD 200110Z 36008KT 02/M04 A3029 RMK A01 T00191038  RH  066%=      5-min Rain = 0
KPAD 200115Z 00007KT 02/M04 A3029 RMK A01 T00151039  RH  068%=      5-min Rain = 0
KPAD 200120Z 02007KT 02/M04 A3029 RMK A01 T00151038  RH  068%=      5-min Rain = 0
KPAD 200125Z 04007KT 02/M04 A3029 RMK A01 T00161039  RH  067%=      5-min Rain = 0
KPAD 200130Z 04007KT 01/M04 A303 RMK A01 T00111041  RH  069%=      5-min Rain = 0
KPAD 200135Z 05008KT 01/M04 A303 RMK A01 T00111039  RH  069%=      5-min Rain = 0
KPAD 200140Z 06008KT 01/M04 A3029 RMK A01 T00081041  RH  070%=      5-min Rain = 0
KPAD 200145Z 06007KT 01/M04 A3029 RMK A01 T00071044  RH  069%=      5-min Rain = 0
KPAD 200150Z 06007KT 01/M05 A3029 RMK A01 T00091048  RH  066%=      5-min Rain = 0
KPAD 200155Z 06007KT 01/M05 A3029 RMK A01 T00081051  RH  065%=      5-min Rain = 0
KPAD 200200Z 06006KT 01/M05 A3029 RMK A01 T00071054  RH  064%=      5-min Rain = 0
KPAD 200205Z 06004KT 00/M06 A3029 RMK A01 T00041055  RH  065%=      5-min Rain = 0
KPAD 200210Z 06003KT 00/M06 A303 RMK A01 T00041056  RH  064%=      5-min Rain = 0
KPAD 200215Z 06004KT 01/M06 A3029 RMK A01 T00061058  RH  062%=      5-min Rain = 0
KPAD 200220Z 05004KT 01/M06 A3029 RMK A01 T00051059  RH  062%=      5-min Rain = 0
KPAD 200225Z 04003KT 00/M06 A3029 RMK A01 T00021060  RH  063%=      5-min Rain = 0
KPAD 200230Z 06001KT 00/M06 A3029 RMK A01 T00021059  RH  063%=      5-min Rain = 0
KPAD 200235Z 09002KT 00/M06 A3029 RMK A01 T00031060  RH  063%=      5-min Rain = 0
KPAD 200240Z 08004KT 01/M06 A3029 RMK A01 T00051061  RH  061%=      5-min Rain = 0
KPAD 200245Z 06004KT 01/M06 A303 RMK A01 T00051062  RH  061%=      5-min Rain = 0
KPAD 200250Z 06003KT 00/M06 A3031 RMK A01 T00041063  RH  061%=      5-min Rain = 0
KPAD 200255Z 05002KT 00/M06 A3031 RMK A01 T00031064  RH  061%=      5-min Rain = 0
KPAD 200300Z 04002KT 00/M06 A3032 RMK A01 T00031064  RH  061%=      5-min Rain = 0
KPAD 200305Z 04003KT 01/M07 A3032 RMK A01 T00051065  RH  059%=      5-min Rain = 0
KPAD 200310Z 06004KT 01/M07 A3031 RMK A01 T00061067  RH  058%=      5-min Rain = 0
KPAD 200315Z 07005KT 00/07 A3031 RMK A01 T00000-66  RH  061%=      5-min Rain = 0
KPAD 200320Z 09002KT M00/M07 A3031 RMK A01 T10041066  RH  063%=      5-min Rain = 0
KPAD 200325Z 09003KT M00/M07 A3031 RMK A01 T10041065  RH  063%=      5-min Rain = 0
KPAD 200330Z 06004KT M00/M07 A3031 RMK A01 T10021066  RH  062%=      5-min Rain = 0
KPAD 200335Z 06003KT M00/M07 A3031 RMK A01 T10031067  RH  062%=      5-min Rain = 0
KPAD 200340Z 07003KT M00/M07 A3032 RMK A01 T10021066  RH  062%=      5-min Rain = 0
KPAD 200345Z 10003KT 00/07 A3032 RMK A01 T00-00-67  RH  061%=      5-min Rain = 0
KPAD 200350Z 08003KT M00/M07 A3031 RMK A01 T10031068  RH  062%=      5-min Rain = 0
KPAD 200355Z 05003KT M00/M07 A3031 RMK A01 T10031068  RH  061%=      5-min Rain = 0
KPAD 200400Z 04003KT 00/07 A3031 RMK A01 T00-00-69  RH  060%=      5-min Rain = 0
KPAD 200405Z 05003KT 00/07 A3031 RMK A01 T00000-69  RH  060%=      5-min Rain = 0
KPAD 200410Z 05004KT M00/M07 A3031 RMK A01 T10011069  RH  060%=      5-min Rain = 0
KPAD 200415Z 05004KT M00/M07 A3031 RMK A01 T10031069  RH  061%=      5-min Rain = 0
KPAD 200420Z 05005KT M01/M07 A3031 RMK A01 T10051068  RH  062%=      5-min Rain = 0
KPAD 200425Z 04004KT M01/M07 A3031 RMK A01 T10061068  RH  063%=      5-min Rain = 0
KPAD 200430Z 04004KT M01/M07 A3031 RMK A01 T10071069  RH  063%=      5-min Rain = 0
KPAD 200435Z 04003KT M01/M07 A3031 RMK A01 T10071070  RH  062%=      5-min Rain = 0
KPAD 200440Z 05003KT M01/M07 A3031 RMK A01 T10051070  RH  062%=      5-min Rain = 0
KPAD 200445Z 06003KT M01/M07 A3031 RMK A01 T10051071  RH  061%=      5-min Rain = 0
KPAD 200450Z 09002KT M01/M07 A3031 RMK A01 T10061072  RH  061%=      5-min Rain = 0
KPAD 200455Z 12002KT M01/M07 A3031 RMK A01 T10061072  RH  061%=      5-min Rain = 0
KPAD 200500Z 13003KT M01/M07 A3031 RMK A01 T10091071  RH  063%=      5-min Rain = 0
KPAD 200505Z 11003KT M01/M07 A3031 RMK A01 T10101071  RH  063%=      5-min Rain = 0
KPAD 200510Z 12004KT M01/M07 A3031 RMK A01 T10091070  RH  064%=      5-min Rain = 0
KPAD 200515Z 13004KT M01/M07 A3031 RMK A01 T10101069  RH  064%=      5-min Rain = 0
KPAD 200520Z 12003KT M01/M07 A3032 RMK A01 T10111068  RH  065%=      5-min Rain = 0
KPAD 200525Z 10003KT M01/M07 A3032 RMK A01 T10101067  RH  065%=      5-min Rain = 0
KPAD 200530Z 10004KT M01/M07 A3032 RMK A01 T10081067  RH  064%=      5-min Rain = 0
KPAD 200535Z 12003KT M01/M07 A3033 RMK A01 T10101068  RH  065%=      5-min Rain = 0
KPAD 200540Z 12003KT M01/M07 A3033 RMK A01 T10111067  RH  066%=      5-min Rain = 0
KPAD 200545Z 10003KT M01/M07 A3033 RMK A01 T10111067  RH  065%=      5-min Rain = 0
KPAD 200550Z 14004KT M01/M07 A3034 RMK A01 T10111068  RH  065%=      5-min Rain = 0
KPAD 200555Z 16005KT M02/M07 A3033 RMK A01 T10201073  RH  067%=      5-min Rain = 0

Page generated in 0.0092 seconds.